createdAt,value
2022-07-25T00:00:39.565Z,5.00
2022-07-25T00:03:14.229Z,5.05
2022-07-25T00:05:48.998Z,5.65
2022-07-25T00:08:22.107Z,6.60
2022-07-25T00:10:55.338Z,5.17
2022-07-25T00:13:28.374Z,5.37
2022-07-25T00:16:04.396Z,4.97
2022-07-25T00:18:37.552Z,5.00
2022-07-25T00:21:10.556Z,5.15
2022-07-25T00:23:44.026Z,4.95
2022-07-25T00:26:17.564Z,5.35
2022-07-25T00:28:50.623Z,5.08
2022-07-25T00:31:23.615Z,5.90
2022-07-25T00:33:57.983Z,5.75
2022-07-25T00:36:31.266Z,5.83
2022-07-25T00:39:06.985Z,5.78
2022-07-25T00:41:39.976Z,5.70
2022-07-25T00:44:14.344Z,6.33
2022-07-25T00:46:47.486Z,6.90
2022-07-25T00:49:20.741Z,6.37
2022-07-25T00:51:55.025Z,6.30
2022-07-25T00:54:28.244Z,6.58
2022-07-25T00:57:04.127Z,5.95
2022-07-25T00:59:37.652Z,5.47
2022-07-25T01:02:10.984Z,6.35
2022-07-25T01:04:47.439Z,6.45
2022-07-25T01:07:20.868Z,6.22
2022-07-25T01:09:54.278Z,6.42
2022-07-25T01:12:27.735Z,5.58
2022-07-25T01:15:00.941Z,6.35
2022-07-25T01:17:35.698Z,6.25
2022-07-25T01:20:28.484Z,6.70
2022-07-25T01:23:02.337Z,6.67
2022-07-25T01:25:35.439Z,6.12
2022-07-25T01:28:09.016Z,6.50
2022-07-25T01:30:42.257Z,6.58
2022-07-25T01:33:19.193Z,7.55
2022-07-25T01:35:52.721Z,7.03
2022-07-25T01:38:25.888Z,6.85
2022-07-25T01:40:59.002Z,7.75
2022-07-25T01:43:33.039Z,8.53
2022-07-25T01:46:07.234Z,8.80
2022-07-25T01:48:41.536Z,7.45
2022-07-25T01:51:15.263Z,6.97
2022-07-25T01:53:50.091Z,6.67
2022-07-25T01:56:23.081Z,6.25
2022-07-25T01:58:58.058Z,6.95
2022-07-25T02:01:31.478Z,6.42
2022-07-25T02:04:05.326Z,6.75
2022-07-25T02:06:41.635Z,5.97
2022-07-25T02:09:14.599Z,6.05
2022-07-25T02:11:47.562Z,5.42
2022-07-25T02:14:20.778Z,5.40
2022-07-25T02:16:54.145Z,5.30
2022-07-25T02:19:27.402Z,5.72
2022-07-25T02:22:03.521Z,4.53
2022-07-25T02:24:37.266Z,5.62
2022-07-25T02:27:10.773Z,5.50
2022-07-25T02:29:43.784Z,5.90
2022-07-25T02:32:16.846Z,5.30
2022-07-25T02:34:49.828Z,5.92
2022-07-25T02:37:24.467Z,6.15
2022-07-25T02:39:57.415Z,5.05
2022-07-25T02:42:30.417Z,5.12
2022-07-25T02:45:03.389Z,5.62
2022-07-25T02:47:36.446Z,4.53
2022-07-25T02:50:14.716Z,5.10
2022-07-25T02:52:46.486Z,5.30
2022-07-25T02:55:19.477Z,5.45
2022-07-25T02:57:52.442Z,4.80
2022-07-25T03:00:26.019Z,5.25
2022-07-25T03:03:01.033Z,5.10
2022-07-25T03:05:34.505Z,4.78
2022-07-25T03:08:09.850Z,5.42
2022-07-25T03:10:43.099Z,4.95
2022-07-25T03:13:16.151Z,5.20
2022-07-25T03:15:49.640Z,5.60
2022-07-25T03:18:23.844Z,5.37
2022-07-25T03:20:58.501Z,5.97
2022-07-25T03:23:31.783Z,5.47
2022-07-25T03:26:05.208Z,5.97
2022-07-25T03:28:38.658Z,4.87
2022-07-25T03:31:11.909Z,5.58
2022-07-25T03:33:44.944Z,6.33
2022-07-25T03:36:19.415Z,6.00
2022-07-25T03:38:52.427Z,5.40
2022-07-25T03:41:27.802Z,6.10
2022-07-25T03:44:00.626Z,5.55
2022-07-25T03:46:33.953Z,5.20
2022-07-25T03:49:07.773Z,5.92
2022-07-25T03:51:43.940Z,5.22
2022-07-25T03:54:16.937Z,6.17
2022-07-25T03:56:52.344Z,5.40
2022-07-25T03:59:25.425Z,5.65
2022-07-25T04:01:59.696Z,5.92
2022-07-25T04:04:32.801Z,6.08
2022-07-25T04:07:06.030Z,5.50
2022-07-25T04:09:39.081Z,4.67
2022-07-25T04:12:12.203Z,4.95
2022-07-25T04:14:45.836Z,5.12
2022-07-25T04:17:19.938Z,4.80
2022-07-25T04:19:54.274Z,5.12
2022-07-25T04:22:29.206Z,5.05
2022-07-25T04:25:02.830Z,6.15
2022-07-25T04:27:35.944Z,5.53
2022-07-25T04:30:11.932Z,6.22
2022-07-25T04:32:45.269Z,5.33
2022-07-25T04:35:18.572Z,6.12
2022-07-25T04:37:51.633Z,5.35
2022-07-25T04:40:24.712Z,6.12
2022-07-25T04:43:00.604Z,5.05
2022-07-25T04:45:34.883Z,5.58
2022-07-25T04:48:09.688Z,5.62
2022-07-25T04:50:42.728Z,5.97
2022-07-25T04:53:15.938Z,5.75
2022-07-25T04:55:49.483Z,5.78
2022-07-25T04:58:25.499Z,5.72
2022-07-25T05:00:58.832Z,5.55
2022-07-25T05:03:31.953Z,6.28
2022-07-25T05:06:05.416Z,6.17
2022-07-25T05:08:38.488Z,6.03
2022-07-25T05:11:11.492Z,5.87
2022-07-25T05:13:44.761Z,5.35
2022-07-25T05:16:17.840Z,5.42
2022-07-25T05:18:50.964Z,6.25
2022-07-25T05:21:24.413Z,5.72
2022-07-25T05:23:57.604Z,5.80
2022-07-25T05:26:31.052Z,4.53
2022-07-25T05:29:04.153Z,5.85
2022-07-25T05:31:38.516Z,5.95
2022-07-25T05:34:12.587Z,5.58
2022-07-25T05:36:47.396Z,5.58
2022-07-25T05:39:21.658Z,5.72
2022-07-25T05:41:54.691Z,5.25
2022-07-25T05:44:29.079Z,6.53
2022-07-25T05:47:02.588Z,5.50
2022-07-25T05:49:35.701Z,6.12
2022-07-25T05:52:12.917Z,6.22
2022-07-25T05:54:44.373Z,5.65
2022-07-25T05:57:17.483Z,6.62
2022-07-25T05:59:50.729Z,5.95
2022-07-25T06:02:23.939Z,5.53
2022-07-25T06:04:57.237Z,6.10
2022-07-25T06:07:30.297Z,6.12
2022-07-25T06:10:03.484Z,5.37
2022-07-25T06:12:36.967Z,6.22
2022-07-25T06:15:17.663Z,5.47
2022-07-25T06:17:46.667Z,6.00
2022-07-25T06:20:20.223Z,5.85
2022-07-25T06:22:53.448Z,5.60
2022-07-25T06:25:26.919Z,5.83
2022-07-25T06:28:01.136Z,6.35
2022-07-25T06:30:34.548Z,6.55
2022-07-25T06:33:07.757Z,7.20
2022-07-25T06:35:40.795Z,6.45
2022-07-25T06:38:13.953Z,6.40
2022-07-25T06:40:47.322Z,6.03
2022-07-25T06:43:20.319Z,5.80
2022-07-25T06:45:56.459Z,6.50
2022-07-25T06:48:30.677Z,5.87
2022-07-25T06:51:04.937Z,6.10
2022-07-25T06:53:39.742Z,6.35
2022-07-25T06:56:17.473Z,5.83
2022-07-25T06:58:47.430Z,6.28
2022-07-25T07:01:20.856Z,5.67
2022-07-25T07:03:54.229Z,6.45
2022-07-25T07:06:27.303Z,5.15
2022-07-25T07:09:00.380Z,5.95
2022-07-25T07:11:34.440Z,4.90
2022-07-25T07:14:08.027Z,5.50
2022-07-25T07:16:42.577Z,5.53
2022-07-25T07:19:15.977Z,5.40
2022-07-25T07:21:51.548Z,5.55
2022-07-25T07:24:24.845Z,5.62
2022-07-25T07:26:57.827Z,5.30
2022-07-25T07:29:32.193Z,5.83
2022-07-25T07:32:06.641Z,5.85
2022-07-25T07:34:40.352Z,5.53
2022-07-25T07:37:13.290Z,5.85
2022-07-25T07:39:46.303Z,5.42
2022-07-25T07:42:19.341Z,6.05
2022-07-25T07:44:52.692Z,4.70
2022-07-25T07:47:25.804Z,5.87
2022-07-25T07:49:58.764Z,5.65
2022-07-25T07:52:32.036Z,4.75
2022-07-25T07:55:22.903Z,5.45
2022-07-25T07:58:00.419Z,5.33
2022-07-25T08:00:38.957Z,5.55
2022-07-25T08:03:12.282Z,5.37
2022-07-25T08:05:46.663Z,4.72
2022-07-25T08:08:19.789Z,5.37
2022-07-25T08:10:58.374Z,5.25
2022-07-25T08:13:30.837Z,5.17
2022-07-25T08:16:05.375Z,5.55
2022-07-25T08:18:38.818Z,5.50
2022-07-25T08:21:12.187Z,5.62
2022-07-25T08:23:48.369Z,6.05
2022-07-25T08:26:21.635Z,5.22
2022-07-25T08:29:17.137Z,5.33
2022-07-25T08:31:30.601Z,5.75
2022-07-25T08:34:05.611Z,5.17
2022-07-25T08:36:39.436Z,5.03
2022-07-25T08:39:12.482Z,5.70
2022-07-25T08:41:46.025Z,6.37
2022-07-25T08:44:21.469Z,5.42
2022-07-25T08:46:55.677Z,4.92
2022-07-25T08:49:30.000Z,5.67
2022-07-25T08:52:04.656Z,4.90
2022-07-25T08:54:38.313Z,4.65
2022-07-25T08:57:12.151Z,5.10
2022-07-25T08:59:46.151Z,4.97
2022-07-25T09:02:19.287Z,5.05
2022-07-25T09:04:53.618Z,4.95
2022-07-25T09:07:34.542Z,4.42
2022-07-25T09:10:27.901Z,3.67
2022-07-25T09:13:02.787Z,4.33
2022-07-25T09:15:37.301Z,4.67
2022-07-25T09:18:13.434Z,4.55
2022-07-25T09:20:49.920Z,5.33
2022-07-25T09:23:32.278Z,5.60
2022-07-25T09:26:07.466Z,4.42
2022-07-25T09:28:44.786Z,5.15
2022-07-25T09:31:21.676Z,5.87
2022-07-25T09:33:57.065Z,6.92
2022-07-25T09:36:30.100Z,5.37
2022-07-25T09:39:05.861Z,4.60
2022-07-25T09:41:42.835Z,5.97
2022-07-25T09:44:23.155Z,5.40
2022-07-25T09:46:56.699Z,4.55
2022-07-25T09:49:40.043Z,5.20
2022-07-25T09:52:14.345Z,5.20
2022-07-25T09:54:47.821Z,5.05
2022-07-25T09:57:21.152Z,4.87
2022-07-25T09:59:56.150Z,4.17
2022-07-25T10:02:36.083Z,4.15
2022-07-25T10:05:16.910Z,4.55
2022-07-25T10:07:52.673Z,5.45
2022-07-25T10:10:28.783Z,4.15
2022-07-25T10:13:09.500Z,4.25
2022-07-25T10:18:20.210Z,4.90
2022-07-25T10:20:55.545Z,4.12
2022-07-25T10:23:29.912Z,4.60
2022-07-25T10:26:06.107Z,5.45
2022-07-25T10:28:44.906Z,4.85
2022-07-25T10:31:21.412Z,4.30
2022-07-25T10:33:57.354Z,3.90
2022-07-25T10:36:34.450Z,3.33
2022-07-25T10:39:10.092Z,4.15
2022-07-25T10:41:44.900Z,4.35
2022-07-25T10:44:18.659Z,3.40
2022-07-25T10:46:52.117Z,3.62
2022-07-25T10:49:31.787Z,3.55
2022-07-25T10:52:03.436Z,4.17
2022-07-25T10:54:38.056Z,3.87
2022-07-25T10:57:17.389Z,3.55
2022-07-25T10:59:50.848Z,3.67
2022-07-25T11:02:25.846Z,3.55
2022-07-25T11:05:05.277Z,3.65
2022-07-25T11:07:38.599Z,3.55
2022-07-25T11:10:12.516Z,4.20
2022-07-25T11:12:49.263Z,4.30
2022-07-25T11:15:25.570Z,3.72
2022-07-25T11:17:58.665Z,3.52
2022-07-25T11:20:32.379Z,3.58
2022-07-25T11:23:05.572Z,3.12
2022-07-25T11:25:38.761Z,3.65
2022-07-25T11:28:12.579Z,3.75
2022-07-25T11:30:45.777Z,3.42
2022-07-25T11:33:19.060Z,3.40
2022-07-25T11:35:52.439Z,3.42
2022-07-25T11:38:25.789Z,3.47
2022-07-25T11:40:59.646Z,3.40
2022-07-25T11:43:33.211Z,4.20
2022-07-25T11:46:08.578Z,3.75
2022-07-25T11:48:43.118Z,3.77
2022-07-25T11:51:19.571Z,3.87
2022-07-25T11:53:53.762Z,3.90
2022-07-25T11:56:42.413Z,4.30
2022-07-25T11:59:02.371Z,4.33
2022-07-25T12:01:41.799Z,3.47
2022-07-25T12:04:17.120Z,4.22
2022-07-25T12:06:51.417Z,3.75
2022-07-25T12:09:24.902Z,3.77
2022-07-25T12:12:05.063Z,3.40
2022-07-25T12:14:46.987Z,3.90
2022-07-25T12:17:20.351Z,2.80
2022-07-25T12:19:53.584Z,3.25
2022-07-25T12:22:26.879Z,3.70
2022-07-25T12:25:00.150Z,3.50
2022-07-25T12:27:34.441Z,3.10
2022-07-25T12:30:10.019Z,3.37
2022-07-25T12:32:43.582Z,3.65
2022-07-25T12:35:17.144Z,2.92
2022-07-25T12:37:52.024Z,3.40
2022-07-25T12:40:25.495Z,3.37
2022-07-25T12:42:59.546Z,3.35
2022-07-25T12:45:32.952Z,3.42
2022-07-25T12:48:06.780Z,3.30
2022-07-25T12:50:40.503Z,3.27
2022-07-25T12:53:14.434Z,2.65
2022-07-25T12:55:47.696Z,2.67
2022-07-25T12:58:21.565Z,2.92
2022-07-25T13:00:58.161Z,2.55
2022-07-25T13:03:29.668Z,2.80
2022-07-25T13:06:03.134Z,2.77
2022-07-25T13:08:37.881Z,2.92
2022-07-25T13:11:12.874Z,3.02
2022-07-25T13:13:46.189Z,3.30
2022-07-25T13:16:19.659Z,3.02
2022-07-25T13:18:52.921Z,3.17
2022-07-25T13:21:26.500Z,3.00
2022-07-25T13:23:59.625Z,2.70
2022-07-25T13:26:34.485Z,2.70
2022-07-25T13:29:09.602Z,3.15
2022-07-25T13:31:44.705Z,3.22
2022-07-25T13:34:18.588Z,2.98
2022-07-25T13:36:51.934Z,3.60
2022-07-25T13:39:25.520Z,3.50
2022-07-25T13:41:58.816Z,4.08
2022-07-25T13:44:32.269Z,3.22
2022-07-25T13:47:06.061Z,3.55
2022-07-25T13:49:39.412Z,3.05
2022-07-25T13:52:12.566Z,3.12
2022-07-25T13:54:47.440Z,3.92
2022-07-25T13:57:20.904Z,3.77
2022-07-25T13:59:54.350Z,3.95
2022-07-25T14:02:27.771Z,4.05
2022-07-25T14:05:04.253Z,3.50
2022-07-25T14:07:37.417Z,3.72
2022-07-25T14:10:12.658Z,3.72
2022-07-25T14:12:47.373Z,3.90
2022-07-25T14:15:21.992Z,3.45
2022-07-25T14:17:54.952Z,3.98
2022-07-25T14:20:29.923Z,3.42
2022-07-25T14:23:03.237Z,3.80
2022-07-25T14:25:36.779Z,3.22
2022-07-25T14:28:10.561Z,2.98
2022-07-25T14:30:44.037Z,3.35
2022-07-25T14:33:17.377Z,3.17
2022-07-25T14:35:50.675Z,3.37
2022-07-25T14:38:24.018Z,3.20
2022-07-25T14:40:58.092Z,3.50
2022-07-25T14:43:31.434Z,3.12
2022-07-25T14:46:05.316Z,2.90
2022-07-25T14:48:39.625Z,3.02
2022-07-25T14:51:13.292Z,3.10
2022-07-25T14:53:50.068Z,3.60
2022-07-25T14:56:21.488Z,2.90
2022-07-25T14:58:54.503Z,4.10
2022-07-25T15:01:27.940Z,2.67
2022-07-25T15:04:01.397Z,2.30
2022-07-25T15:06:34.961Z,2.87
2022-07-25T15:09:08.902Z,2.90
2022-07-25T15:11:42.526Z,2.92
2022-07-25T15:14:15.799Z,3.00
2022-07-25T15:16:49.078Z,2.98
2022-07-25T15:19:22.506Z,2.75
2022-07-25T15:21:55.901Z,2.98
2022-07-25T15:24:29.478Z,3.60
2022-07-25T15:27:02.898Z,3.08
2022-07-25T15:29:36.245Z,2.40
2022-07-25T15:32:10.177Z,2.42
2022-07-25T15:34:43.482Z,3.08
2022-07-25T15:37:16.480Z,3.05
2022-07-25T15:39:49.876Z,2.92
2022-07-25T15:42:27.167Z,3.10
2022-07-25T15:45:31.405Z,3.52
2022-07-25T15:47:35.030Z,4.03
2022-07-25T15:50:09.563Z,3.40
2022-07-25T15:52:42.721Z,3.90
2022-07-25T15:55:16.335Z,3.77
2022-07-25T15:57:49.466Z,3.62
2022-07-25T16:00:26.110Z,3.17
2022-07-25T16:02:58.287Z,4.00
2022-07-25T16:05:31.791Z,3.42
2022-07-25T16:08:05.531Z,4.20
2022-07-25T16:10:39.098Z,4.03
2022-07-25T16:13:12.249Z,4.40
2022-07-25T16:15:45.878Z,4.60
2022-07-25T16:18:19.245Z,4.40
2022-07-25T16:20:52.606Z,4.47
2022-07-25T16:23:27.620Z,3.62
2022-07-25T16:26:01.109Z,3.50
2022-07-25T16:28:33.988Z,4.05
2022-07-25T16:31:08.109Z,4.17
2022-07-25T16:33:41.407Z,3.90
2022-07-25T16:36:14.709Z,4.50
2022-07-25T16:38:49.251Z,4.80
2022-07-25T16:41:22.757Z,4.92
2022-07-25T16:43:56.167Z,3.95
2022-07-25T16:46:29.487Z,4.40
2022-07-25T16:49:02.768Z,4.45
2022-07-25T16:51:37.259Z,4.85
2022-07-25T16:54:11.721Z,4.20
2022-07-25T16:56:45.176Z,4.25
2022-07-25T16:59:18.291Z,4.35
2022-07-25T17:01:51.714Z,4.33
2022-07-25T17:04:25.003Z,4.58
2022-07-25T17:06:58.498Z,5.15
2022-07-25T17:09:32.153Z,5.67
2022-07-25T17:12:06.234Z,5.83
2022-07-25T17:14:42.601Z,6.22
2022-07-25T17:17:15.742Z,7.28
2022-07-25T17:19:49.059Z,7.00
2022-07-25T17:22:22.080Z,5.95
2022-07-25T17:24:55.017Z,6.47
2022-07-25T17:27:28.175Z,6.45
2022-07-25T17:30:01.493Z,7.05
2022-07-25T17:32:34.562Z,6.05
2022-07-25T17:35:08.842Z,5.85
2022-07-25T17:37:43.252Z,6.33
2022-07-25T17:40:16.433Z,6.05
2022-07-25T17:42:49.424Z,5.95
2022-07-25T17:45:22.644Z,5.87
2022-07-25T17:47:55.865Z,10.28
2022-07-25T17:50:29.683Z,6.92
2022-07-25T17:53:03.309Z,6.55
2022-07-25T17:55:39.119Z,6.87
2022-07-25T17:58:12.889Z,7.10
2022-07-25T18:00:45.802Z,6.50
2022-07-25T18:03:24.930Z,6.40
2022-07-25T18:05:58.036Z,8.18
2022-07-25T18:08:33.115Z,8.20
2022-07-25T18:11:06.694Z,7.33
2022-07-25T18:13:43.867Z,7.17
2022-07-25T18:16:17.563Z,6.12
2022-07-25T18:18:54.846Z,6.55
2022-07-25T18:24:12.008Z,6.55
2022-07-25T18:26:46.197Z,5.50
2022-07-25T18:29:20.333Z,6.35
2022-07-25T18:31:54.041Z,5.42
2022-07-25T18:34:27.157Z,6.45
2022-07-25T18:37:00.562Z,6.55
2022-07-25T18:39:33.751Z,6.25
2022-07-25T18:42:07.566Z,5.95
2022-07-25T18:44:40.525Z,6.47
2022-07-25T18:47:14.117Z,6.50
2022-07-25T18:49:49.088Z,6.30
2022-07-25T18:55:20.811Z,7.28
2022-07-25T18:57:54.320Z,6.22
2022-07-25T19:00:28.014Z,7.10
2022-07-25T19:03:01.415Z,5.80
2022-07-25T19:05:34.580Z,6.05
2022-07-25T19:08:09.169Z,6.00
2022-07-25T19:10:42.223Z,5.85
2022-07-25T19:13:39.206Z,6.30
2022-07-25T19:15:50.469Z,5.87
2022-07-25T19:18:29.170Z,5.25
2022-07-25T19:20:58.646Z,5.95
2022-07-25T19:23:32.040Z,5.30
2022-07-25T19:26:08.385Z,5.05
2022-07-25T19:28:41.478Z,5.65
2022-07-25T19:31:14.764Z,5.95
2022-07-25T19:33:50.896Z,5.78
2022-07-25T19:36:24.008Z,5.20
2022-07-25T19:38:56.995Z,4.83
2022-07-25T19:41:31.736Z,5.95
2022-07-25T19:44:05.256Z,5.92
2022-07-25T19:46:38.656Z,5.30
2022-07-25T19:49:11.920Z,5.10
2022-07-25T19:51:45.052Z,5.37
2022-07-25T19:54:19.741Z,5.78
2022-07-25T19:56:53.568Z,4.75
2022-07-25T19:59:26.988Z,4.80
2022-07-25T20:02:01.037Z,5.55
2022-07-25T20:04:34.176Z,5.67
2022-07-25T20:07:07.772Z,5.45
2022-07-25T20:09:41.205Z,6.10
2022-07-25T20:12:17.311Z,5.80
2022-07-25T20:14:50.619Z,5.75
2022-07-25T20:17:23.903Z,6.15
2022-07-25T20:19:56.915Z,6.25
2022-07-25T20:22:31.568Z,5.15
2022-07-25T20:25:06.161Z,5.45
2022-07-25T20:27:42.871Z,5.55
2022-07-25T20:30:21.789Z,5.58
2022-07-25T20:32:58.138Z,5.67
2022-07-25T20:35:34.563Z,5.30
2022-07-25T20:38:09.301Z,5.42
2022-07-25T20:40:49.238Z,5.35
2022-07-25T20:43:19.256Z,6.45
2022-07-25T20:45:52.469Z,5.05
2022-07-25T20:48:26.144Z,5.50
2022-07-25T20:50:59.427Z,5.85
2022-07-25T20:53:32.537Z,5.25
2022-07-25T20:56:05.900Z,6.12
2022-07-25T20:58:39.205Z,5.92
2022-07-25T21:01:12.750Z,5.58
2022-07-25T21:03:46.058Z,5.90
2022-07-25T21:06:19.294Z,6.15
2022-07-25T21:08:52.795Z,6.28
2022-07-25T21:11:26.176Z,6.30
2022-07-25T21:13:59.801Z,6.10
2022-07-25T21:16:34.632Z,6.08
2022-07-25T21:19:08.552Z,6.37
2022-07-25T21:24:49.433Z,6.78
2022-07-25T21:27:26.123Z,6.97
2022-07-25T21:29:59.647Z,6.50
2022-07-25T21:32:34.841Z,6.35
2022-07-25T21:38:26.047Z,6.97
2022-07-25T21:40:54.191Z,6.72
2022-07-25T21:43:27.680Z,6.85
2022-07-25T21:46:00.799Z,6.90
2022-07-25T21:48:51.070Z,6.95
2022-07-25T21:51:26.080Z,7.17
2022-07-25T21:54:00.885Z,6.90
2022-07-25T21:56:57.731Z,7.62
2022-07-25T21:59:36.802Z,7.00
2022-07-25T22:05:45.911Z,6.72
2022-07-25T22:09:26.642Z,7.40
2022-07-25T22:22:04.337Z,7.05
2022-07-25T22:24:41.852Z,7.28
2022-07-25T22:27:12.926Z,6.75
2022-07-25T22:29:46.018Z,6.78
2022-07-25T22:32:19.070Z,6.92
2022-07-25T22:34:52.118Z,6.78
2022-07-25T22:37:25.026Z,6.75
2022-07-25T22:40:01.139Z,6.78
2022-07-25T22:42:34.677Z,7.47
2022-07-25T22:45:09.550Z,6.90
2022-07-25T23:18:21.970Z,8.00
2022-07-25T23:20:55.149Z,7.50
2022-07-25T23:26:17.770Z,7.97
2022-07-25T23:28:50.931Z,7.37
2022-07-25T23:31:24.284Z,7.70
2022-07-25T23:33:57.470Z,7.87
2022-07-25T23:36:36.886Z,8.18
2022-07-25T23:39:10.505Z,7.47
2022-07-25T23:41:44.651Z,7.50
2022-07-25T23:44:17.803Z,8.10
2022-07-25T23:46:51.860Z,7.47
2022-07-25T23:49:25.580Z,7.83
2022-07-25T23:51:58.915Z,7.78
2022-07-25T23:54:33.594Z,7.92
2022-07-25T23:57:07.344Z,7.80
2022-07-25T23:59:40.314Z,9.30
